Time;durP1;ratioP1;P1;durP2;ratioP2;P2;SDS_P1;SDS_P2;PMS_P1;PMS_P2;Temp;Humidity;BMP_temperature;BMP_pressure;BME280_temperature;BME280_humidity;BME280_pressure;Samples;Min_cycle;Max_cycle;Signal;HPM_P1;HPM_P2
2023/06/08 00:00:50;;;;;;;10.35;6.65;;;;;;;13.82;85.64;102014.63;4998396;28;20046;-81
2023/06/08 00:03:17;;;;;;;9.13;5.80;;;;;;;13.93;85.24;102009.00;4983740;28;20264;-80
2023/06/08 00:05:47;;;;;;;13.07;6.45;;;;;;;14.02;84.45;102009.53;5000769;28;20301;-80
2023/06/08 00:08:12;;;;;;;14.23;6.70;;;;;;;13.95;85.15;102004.53;5001072;28;20241;-80
2023/06/08 00:10:45;;;;;;;14.95;6.45;;;;;;;13.99;84.61;102006.16;5000525;28;20042;-80
2023/06/08 00:13:11;;;;;;;10.07;5.97;;;;;;;14.07;84.75;102005.88;4982228;28;20371;-80
2023/06/08 00:15:37;;;;;;;16.38;6.65;;;;;;;14.04;84.33;102004.19;5000230;28;20097;-80
2023/06/08 00:18:02;;;;;;;13.25;6.60;;;;;;;14.01;84.58;101996.41;4982084;28;20066;-80
2023/06/08 00:20:28;;;;;;;15.80;6.57;;;;;;;13.86;85.20;101996.97;5000118;28;20050;-80
2023/06/08 00:22:54;;;;;;;15.30;6.70;;;;;;;13.87;85.08;101988.16;4999447;28;20058;-80
2023/06/08 00:25:20;;;;;;;10.35;6.20;;;;;;;13.81;85.38;101999.78;4965572;28;20265;-80
2023/06/08 00:27:46;;;;;;;14.85;6.82;;;;;;;13.76;85.72;101997.28;4965529;28;20034;-80
2023/06/08 00:30:13;;;;;;;16.90;6.85;;;;;;;13.83;85.89;101992.66;4981357;28;20084;-81
2023/06/08 00:32:39;;;;;;;11.93;6.53;;;;;;;13.76;85.79;101991.16;4997907;28;20050;-80
2023/06/08 00:35:05;;;;;;;20.10;6.72;;;;;;;13.72;86.11;101979.88;4949386;28;20232;-80
2023/06/08 00:37:31;;;;;;;13.40;7.13;;;;;;;13.71;85.88;101985.22;4981646;28;20038;-80
2023/06/08 00:39:57;;;;;;;10.85;6.82;;;;;;;13.72;86.24;101993.06;4980912;28;20064;-80
2023/06/08 00:42:22;;;;;;;12.43;7.05;;;;;;;13.70;86.37;101992.25;4965275;28;20038;-80
2023/06/08 00:44:47;;;;;;;15.32;6.63;;;;;;;13.76;86.14;101992.03;4998955;28;20486;-80
2023/06/08 00:47:13;;;;;;;16.42;7.35;;;;;;;13.66;86.54;101995.91;4998346;28;20120;-80
2023/06/08 00:49:39;;;;;;;17.85;7.80;;;;;;;13.70;86.11;101988.75;4997826;28;20046;-80
2023/06/08 00:52:07;;;;;;;17.50;7.07;;;;;;;13.73;86.33;101981.59;4997751;28;20046;-80
2023/06/08 00:54:33;;;;;;;13.97;7.50;;;;;;;13.79;85.81;101973.50;4998507;28;20065;-80
2023/06/08 00:57:03;;;;;;;11.32;6.63;;;;;;;13.84;85.76;101975.94;4997067;28;20065;-80
2023/06/08 00:59:30;;;;;;;17.85;6.85;;;;;;;13.86;84.96;101976.78;4981107;28;20026;-80
2023/06/08 01:04:56;;;;;;;11.80;6.88;;;;;;;13.81;85.71;101976.94;4998184;28;20136;-80
2023/06/08 01:07:48;;;;;;;9.95;6.70;;;;;;;13.78;85.74;101970.91;4966474;28;20256;-80
2023/06/08 01:10:46;;;;;;;11.05;6.50;;;;;;;13.81;85.81;101973.44;4998464;28;20125;-80
2023/06/08 01:13:21;;;;;;;17.00;6.97;;;;;;;13.75;86.12;101974.53;4984772;28;20288;-80
2023/06/08 01:15:51;;;;;;;11.35;7.03;;;;;;;13.63;86.82;101960.00;4998518;28;20288;-80
2023/06/08 01:18:22;;;;;;;17.65;7.70;;;;;;;13.63;86.76;101962.66;4980147;28;20034;-80
2023/06/08 01:21:07;;;;;;;16.75;8.13;;;;;;;13.59;86.79;101962.81;4980616;28;20064;-80
2023/06/08 01:23:51;;;;;;;17.58;8.27;;;;;;;13.40;87.69;101962.59;4998446;28;20034;-80
2023/06/08 01:26:18;;;;;;;14.75;7.88;;;;;;;13.34;88.38;101968.06;4980538;28;20325;-80
2023/06/08 01:28:48;;;;;;;15.15;8.30;;;;;;;13.31;88.23;101968.16;4980819;28;20034;-80
2023/06/08 01:31:13;;;;;;;15.73;8.10;;;;;;;13.28;88.59;101955.09;4980302;28;20030;-80
2023/06/08 01:33:39;;;;;;;18.27;7.97;;;;;;;13.33;88.71;101951.41;4980401;28;20368;-80
2023/06/08 01:36:46;;;;;;;17.88;8.48;;;;;;;13.36;88.26;101948.69;4996502;28;20044;-80
2023/06/08 01:39:20;;;;;;;11.80;8.05;;;;;;;13.42;88.15;101944.97;4918697;29;20048;-80
2023/06/08 01:41:50;;;;;;;11.73;8.00;;;;;;;13.41;87.88;101940.66;4972052;28;20404;-80
2023/06/08 01:44:20;;;;;;;15.30;8.70;;;;;;;13.46;87.90;101938.69;4998019;28;20049;-80
2023/06/08 01:46:55;;;;;;;21.75;9.40;;;;;;;13.34;88.44;101945.25;4998496;28;20141;-80
2023/06/08 01:49:22;;;;;;;20.13;9.07;;;;;;;13.29;88.79;101943.66;4997647;28;20037;-80
2023/06/08 01:51:47;;;;;;;14.18;8.80;;;;;;;13.23;89.41;101942.97;4996485;28;20373;-80
2023/06/08 01:54:13;;;;;;;16.88;9.00;;;;;;;13.27;89.26;101948.13;4980277;28;20149;-80
2023/06/08 01:56:39;;;;;;;15.95;8.40;;;;;;;13.28;89.09;101945.44;4996467;28;20053;-80
2023/06/08 01:59:05;;;;;;;15.18;8.25;;;;;;;13.24;88.90;101947.31;4978240;28;20298;-80
2023/06/08 02:01:30;;;;;;;17.65;9.05;;;;;;;13.23;89.30;101945.59;4964126;28;20062;-80
2023/06/08 02:03:56;;;;;;;17.23;9.65;;;;;;;13.24;89.17;101951.69;4995716;28;20050;-80
2023/06/08 02:06:21;;;;;;;10.63;7.78;;;;;;;13.35;88.91;101943.47;4998002;28;20042;-80
2023/06/08 02:08:47;;;;;;;15.70;8.30;;;;;;;13.37;88.24;101941.63;4996020;28;20053;-80
2023/06/08 02:11:12;;;;;;;10.40;8.15;;;;;;;13.34;88.15;101941.78;4997461;28;20045;-80
2023/06/08 02:13:44;;;;;;;19.02;8.85;;;;;;;13.31;88.04;101941.88;4996063;28;20225;-80
2023/06/08 02:16:10;;;;;;;13.95;8.23;;;;;;;13.35;88.49;101951.34;4997276;28;20034;-80
2023/06/08 02:18:40;;;;;;;19.50;9.77;;;;;;;13.16;88.81;101948.47;4997311;28;20042;-80
2023/06/08 02:21:06;;;;;;;16.63;8.70;;;;;;;13.13;89.59;101940.69;4979404;28;20097;-80
2023/06/08 02:23:32;;;;;;;20.30;9.40;;;;;;;13.13;89.41;101944.16;4978000;28;20034;-82
2023/06/08 02:25:58;;;;;;;13.40;8.48;;;;;;;13.18;89.69;101950.13;4977697;28;20244;-82
2023/06/08 02:28:23;;;;;;;14.75;8.63;;;;;;;13.09;89.61;101942.56;4946562;28;20081;-82
2023/06/08 02:30:49;;;;;;;17.10;9.00;;;;;;;13.15;89.57;101939.75;4979380;28;20341;-82
2023/06/08 02:33:14;;;;;;;17.95;9.90;;;;;;;13.03;89.90;101948.03;4979708;28;20038;-82
2023/06/08 02:35:40;;;;;;;18.15;9.18;;;;;;;12.98;90.34;101950.81;4997052;28;20356;-82
2023/06/08 02:38:06;;;;;;;19.52;9.35;;;;;;;13.05;89.79;101954.09;4979396;28;20113;-82
2023/06/08 02:40:31;;;;;;;14.73;8.68;;;;;;;13.00;89.54;101951.59;4996818;28;20058;-82
2023/06/08 02:42:58;;;;;;;11.63;8.48;;;;;;;12.98;90.27;101945.53;4947497;28;20030;-82
2023/06/08 02:45:23;;;;;;;13.65;8.95;;;;;;;12.90;91.05;101952.84;4997382;28;20329;-82
2023/06/08 02:47:49;;;;;;;15.95;9.48;;;;;;;12.89;90.95;101945.00;4995570;28;20294;-82
2023/06/08 02:50:14;;;;;;;17.70;10.32;;;;;;;12.84;91.33;101946.03;4997001;28;20042;-82
2023/06/08 02:52:40;;;;;;;18.73;9.25;;;;;;;12.79;91.95;101944.44;4979476;28;20034;-82
2023/06/08 02:55:07;;;;;;;15.43;9.95;;;;;;;12.89;91.77;101945.84;4979220;28;20046;-82
2023/06/08 02:57:33;;;;;;;18.90;9.38;;;;;;;12.96;91.51;101943.88;4979513;28;20266;-82
2023/06/08 02:59:59;;;;;;;13.25;9.60;;;;;;;12.94;91.15;101943.94;4978619;28;20038;-82
2023/06/08 03:02:27;;;;;;;14.90;10.10;;;;;;;12.89;91.40;101940.59;4979481;28;20048;-82
2023/06/08 03:04:53;;;;;;;16.33;9.50;;;;;;;12.91;91.85;101938.75;4990023;28;20073;-82
2023/06/08 03:07:19;;;;;;;13.93;8.20;;;;;;;12.95;91.44;101939.53;4956618;28;20050;-82
2023/06/08 03:09:44;;;;;;;17.30;9.50;;;;;;;12.82;91.76;101945.22;4979314;28;20257;-82
2023/06/08 03:12:12;;;;;;;24.98;10.05;;;;;;;12.78;92.36;101943.56;4996554;28;20038;-82
2023/06/08 03:14:40;;;;;;;16.75;9.95;;;;;;;12.77;92.54;101946.25;4996839;28;20109;-82
2023/06/08 03:17:06;;;;;;;27.17;10.02;;;;;;;12.79;92.35;101937.41;4966784;28;20045;-82
2023/06/08 03:19:32;;;;;;;16.23;9.20;;;;;;;12.83;91.93;101948.69;4982737;28;20054;-82
2023/06/08 03:22:04;;;;;;;18.08;10.20;;;;;;;12.78;92.21;101932.19;4982684;28;20111;-82
2023/06/08 03:24:31;;;;;;;15.68;9.65;;;;;;;12.81;92.49;101934.75;4982775;28;20042;-82
2023/06/08 03:26:56;;;;;;;18.23;9.90;;;;;;;12.81;92.44;101943.47;4999757;28;20068;-82
2023/06/08 03:29:22;;;;;;;15.93;9.70;;;;;;;12.83;91.74;101944.28;4999701;28;20026;-82
2023/06/08 03:31:47;;;;;;;14.15;9.52;;;;;;;12.84;92.02;101950.41;4982432;28;20049;-82
2023/06/08 03:34:14;;;;;;;15.35;10.05;;;;;;;12.78;92.01;101948.81;4966249;28;20336;-82
2023/06/08 03:36:39;;;;;;;15.30;9.82;;;;;;;12.70;92.90;101942.09;5000654;28;20364;-82
2023/06/08 03:39:05;;;;;;;19.42;9.90;;;;;;;12.64;93.16;101936.16;4981481;28;20050;-82
2023/06/08 03:41:30;;;;;;;17.92;10.48;;;;;;;12.68;93.03;101936.91;4966726;28;20042;-82
2023/06/08 03:43:56;;;;;;;16.40;10.35;;;;;;;12.63;93.32;101941.44;4999317;28;20030;-82
2023/06/08 03:46:22;;;;;;;20.48;9.68;;;;;;;12.69;93.35;101928.09;5000517;28;20042;-82
2023/06/08 03:48:48;;;;;;;16.98;9.93;;;;;;;12.68;92.92;101934.28;4982833;28;20081;-82
2023/06/08 03:51:14;;;;;;;19.63;10.15;;;;;;;12.64;93.19;101925.63;4982793;28;20092;-82
2023/06/08 03:53:40;;;;;;;15.60;9.55;;;;;;;12.66;92.82;101936.94;5000816;28;20570;-82
2023/06/08 03:56:05;;;;;;;17.27;10.30;;;;;;;12.64;92.77;101932.63;4998526;28;20495;-82
2023/06/08 03:58:32;;;;;;;15.30;10.48;;;;;;;12.63;92.85;101930.94;4982971;28;20304;-82
2023/06/08 04:00:58;;;;;;;23.95;11.10;;;;;;;12.56;93.24;101932.03;5000365;28;20364;-82
2023/06/08 04:03:26;;;;;;;18.45;10.45;;;;;;;12.55;93.51;101944.31;4982822;28;20034;-82
2023/06/08 04:05:52;;;;;;;22.15;10.57;;;;;;;12.56;93.76;101946.03;4982883;28;20339;-82
2023/06/08 04:08:18;;;;;;;25.05;11.07;;;;;;;12.63;93.38;101942.28;4982640;28;20038;-82
2023/06/08 04:10:44;;;;;;;17.48;9.55;;;;;;;12.60;93.50;101945.00;5000302;28;20117;-82
2023/06/08 04:13:09;;;;;;;17.73;10.73;;;;;;;12.61;93.18;101940.63;4982175;28;20373;-82
2023/06/08 04:15:35;;;;;;;20.55;10.10;;;;;;;12.58;93.74;101948.59;4999948;28;20042;-82
2023/06/08 04:18:02;;;;;;;17.90;9.27;;;;;;;12.61;93.68;101948.53;4999863;28;20042;-82
2023/06/08 04:20:28;;;;;;;16.85;9.85;;;;;;;12.57;93.06;101946.88;4982203;28;20059;-82
2023/06/08 04:22:53;;;;;;;16.70;9.90;;;;;;;12.39;94.30;101938.69;4982352;28;20059;-81
2023/06/08 04:25:19;;;;;;;18.60;10.45;;;;;;;12.44;94.28;101939.41;4999785;28;20073;-82
2023/06/08 04:27:46;;;;;;;16.75;9.88;;;;;;;12.45;93.84;101935.84;4982141;28;20034;-82
2023/06/08 04:30:12;;;;;;;19.98;10.50;;;;;;;12.41;93.82;101938.63;4966088;28;20040;-82
2023/06/08 04:32:37;;;;;;;18.70;10.48;;;;;;;12.33;94.61;101938.00;5000190;28;20038;-82
2023/06/08 04:35:03;;;;;;;17.60;9.93;;;;;;;12.31;94.45;101930.16;4999469;28;20073;-82
2023/06/08 04:37:29;;;;;;;17.52;10.32;;;;;;;12.32;94.56;101942.41;4980966;28;20041;-82
2023/06/08 04:39:56;;;;;;;12.48;9.15;;;;;;;12.32;94.33;101944.16;4999298;28;20038;-82
2023/06/08 04:42:23;;;;;;;16.73;9.77;;;;;;;12.30;94.39;101936.34;4999668;28;20213;-82
2023/06/08 04:44:50;;;;;;;22.48;11.05;;;;;;;12.29;94.34;101943.31;4981941;28;20022;-82
2023/06/08 04:47:17;;;;;;;16.83;10.55;;;;;;;12.33;94.54;101944.09;4999181;28;20128;-82
2023/06/08 04:49:42;;;;;;;16.20;10.40;;;;;;;12.33;94.38;101933.59;4982164;28;20073;-82
2023/06/08 04:52:09;;;;;;;20.60;10.70;;;;;;;12.28;94.36;101935.53;4961821;28;20121;-82
2023/06/08 04:54:36;;;;;;;17.77;10.23;;;;;;;12.31;94.79;101938.03;4962537;28;20038;-82
2023/06/08 04:57:03;;;;;;;16.70;10.40;;;;;;;12.35;94.42;101928.28;4993388;28;20102;-82
2023/06/08 04:59:29;;;;;;;17.13;10.75;;;;;;;12.37;94.23;101932.63;4982071;28;20046;-82
2023/06/08 05:01:55;;;;;;;16.08;10.20;;;;;;;12.43;94.11;101931.56;4999251;28;20096;-82
2023/06/08 05:04:21;;;;;;;14.65;9.95;;;;;;;12.40;94.16;101936.91;4999473;28;20042;-82
2023/06/08 05:06:47;;;;;;;22.52;10.85;;;;;;;12.43;93.80;101935.03;4998704;28;20054;-82
2023/06/08 05:09:12;;;;;;;18.98;10.57;;;;;;;12.47;94.22;101935.81;4999337;28;20069;-82
2023/06/08 05:11:38;;;;;;;14.10;11.05;;;;;;;12.52;93.95;101939.16;4981957;28;20228;-82
2023/06/08 05:14:04;;;;;;;14.15;9.98;;;;;;;12.58;93.44;101935.47;4999044;28;20050;-82
2023/06/08 05:16:29;;;;;;;19.65;10.18;;;;;;;12.59;93.19;101942.47;4981264;28;20107;-82
2023/06/08 05:18:55;;;;;;;16.08;10.13;;;;;;;12.63;93.50;101944.06;4998488;28;20066;-82
2023/06/08 05:21:20;;;;;;;22.98;10.48;;;;;;;12.73;93.30;101940.22;4994362;28;20207;-82
2023/06/08 05:23:47;;;;;;;14.77;10.00;;;;;;;12.71;92.49;101935.94;4956319;28;20046;-82
2023/06/08 05:26:12;;;;;;;17.38;10.20;;;;;;;12.74;92.85;101939.31;4991392;28;20176;-82
2023/06/08 05:28:38;;;;;;;24.15;10.57;;;;;;;12.73;92.74;101934.13;4979496;28;20038;-82
2023/06/08 05:31:03;;;;;;;20.50;10.23;;;;;;;12.61;93.01;101932.75;4978870;28;20113;-82
2023/06/08 05:33:28;;;;;;;18.15;10.20;;;;;;;12.67;93.20;101928.13;4950230;28;20050;-82
2023/06/08 05:35:54;;;;;;;22.60;10.73;;;;;;;12.63;93.42;101918.66;4985863;28;20049;-82
2023/06/08 05:38:20;;;;;;;24.02;11.38;;;;;;;12.59;93.86;101921.44;4979806;28;20045;-82
2023/06/08 05:40:45;;;;;;;19.15;10.57;;;;;;;12.57;94.05;101916.22;4967410;28;20402;-82
2023/06/08 05:43:11;;;;;;;18.27;10.20;;;;;;;12.62;93.84;101918.69;4980704;28;20042;-82
2023/06/08 05:45:36;;;;;;;18.58;10.75;;;;;;;12.70;94.31;101915.81;4980306;28;20121;-82
2023/06/08 05:48:02;;;;;;;15.85;9.70;;;;;;;12.76;93.27;101913.84;4979193;28;20045;-82
2023/06/08 05:50:27;;;;;;;20.23;10.00;;;;;;;12.79;93.37;101912.91;4973465;28;20269;-82
2023/06/08 05:52:52;;;;;;;20.88;9.90;;;;;;;12.74;92.77;101907.78;4984527;28;20038;-82
2023/06/08 05:55:18;;;;;;;15.25;9.88;;;;;;;12.71;93.24;101909.66;4980648;28;20030;-82
2023/06/08 05:57:43;;;;;;;20.83;9.85;;;;;;;12.75;92.93;101906.88;4998463;28;20026;-82
2023/06/08 06:00:11;;;;;;;21.67;10.07;;;;;;;12.77;93.05;101907.69;4998116;28;20053;-82
2023/06/08 06:02:38;;;;;;;18.42;10.25;;;;;;;12.83;93.41;101909.25;4987362;28;20238;-82
2023/06/08 06:05:04;;;;;;;25.52;10.85;;;;;;;12.87;93.01;101910.88;4980492;28;20034;-82
2023/06/08 06:07:29;;;;;;;16.55;10.32;;;;;;;12.90;92.53;101909.91;4981009;28;20211;-82
2023/06/08 06:09:54;;;;;;;15.30;9.63;;;;;;;12.94;92.32;101907.13;4983139;28;20030;-82
2023/06/08 06:12:20;;;;;;;24.20;10.38;;;;;;;12.96;92.02;101902.66;4976369;28;20053;-82
2023/06/08 06:14:45;;;;;;;19.92;10.10;;;;;;;13.04;92.27;101898.03;4982589;28;20074;-82
2023/06/08 06:17:11;;;;;;;14.95;9.30;;;;;;;13.09;91.60;101900.47;4953921;28;20353;-82
2023/06/08 06:19:37;;;;;;;20.23;9.88;;;;;;;13.16;91.11;101903.78;4977129;28;20066;-82
2023/06/08 06:22:08;;;;;;;15.95;9.70;;;;;;;13.21;91.23;101904.47;4989052;28;20030;-82
2023/06/08 06:24:33;;;;;;;15.48;9.60;;;;;;;13.29;90.51;101901.56;4976092;28;20062;-82
2023/06/08 06:26:59;;;;;;;18.08;9.52;;;;;;;13.34;89.87;101897.03;4977270;28;20034;-82
2023/06/08 06:29:25;;;;;;;14.60;9.05;;;;;;;13.37;89.09;101895.16;4987556;28;20042;-82
2023/06/08 06:31:51;;;;;;;18.02;9.27;;;;;;;13.44;89.12;101895.78;4976688;28;20042;-82
2023/06/08 06:34:17;;;;;;;12.38;8.88;;;;;;;13.53;88.78;101894.59;4961528;28;20034;-82
2023/06/08 06:36:42;;;;;;;21.48;9.10;;;;;;;13.61;88.47;101908.34;4958065;28;20042;-82
2023/06/08 06:39:08;;;;;;;14.65;8.60;;;;;;;13.66;87.63;101905.53;4960059;28;20041;-82
2023/06/08 06:41:33;;;;;;;13.40;8.35;;;;;;;13.70;87.29;101905.38;4953472;28;20053;-82
2023/06/08 06:43:59;;;;;;;12.52;8.18;;;;;;;13.76;87.35;101901.66;4942485;28;20073;-82
2023/06/08 06:46:25;;;;;;;16.10;8.95;;;;;;;13.82;87.08;101907.56;4973317;28;20115;-82
2023/06/08 06:48:51;;;;;;;13.60;8.10;;;;;;;13.91;87.07;101905.50;4974528;28;20030;-81
2023/06/08 06:51:16;;;;;;;14.15;8.13;;;;;;;13.96;86.02;101909.66;4953408;28;20089;-82
2023/06/08 06:53:41;;;;;;;14.55;8.35;;;;;;;14.04;85.38;101912.00;4986613;28;20338;-82
2023/06/08 06:56:07;;;;;;;16.20;8.20;;;;;;;14.11;85.03;101905.56;4990591;28;20043;-82
2023/06/08 06:58:33;;;;;;;11.57;8.02;;;;;;;14.13;84.89;101909.00;4979799;28;20271;-82
2023/06/08 07:00:58;;;;;;;13.40;7.43;;;;;;;14.16;84.85;101902.78;4974187;28;20046;-82
2023/06/08 07:03:26;;;;;;;14.63;7.75;;;;;;;14.18;84.34;101908.84;4996310;28;20350;-82
2023/06/08 07:05:59;;;;;;;10.55;7.43;;;;;;;14.24;84.10;101913.00;4996682;28;20038;-82
2023/06/08 07:08:27;;;;;;;11.32;6.95;;;;;;;14.22;83.28;101907.81;4996617;28;20030;-82
2023/06/08 07:10:52;;;;;;;18.88;8.15;;;;;;;14.28;83.85;101907.56;4987606;28;20276;-82
2023/06/08 07:13:17;;;;;;;10.57;7.30;;;;;;;14.31;83.32;101910.06;4974116;28;20038;-82
2023/06/08 07:15:43;;;;;;;11.38;7.50;;;;;;;14.35;83.49;101911.69;4998881;28;20042;-82
2023/06/08 07:18:08;;;;;;;13.80;6.75;;;;;;;14.39;83.16;101899.25;4971882;28;20034;-82
2023/06/08 07:20:34;;;;;;;16.23;7.18;;;;;;;14.44;82.66;101893.78;4978277;28;20440;-82
2023/06/08 07:23:00;;;;;;;15.85;7.00;;;;;;;14.48;81.34;101904.16;4960105;28;20026;-82
2023/06/08 07:25:25;;;;;;;13.48;7.22;;;;;;;14.53;80.87;101901.31;4978610;28;20042;-82
2023/06/08 07:27:50;;;;;;;16.52;7.60;;;;;;;14.57;79.59;101906.44;4981820;28;20383;-82
2023/06/08 07:30:16;;;;;;;9.77;6.20;;;;;;;14.62;78.67;101908.88;4978172;28;20046;-82
2023/06/08 07:32:43;;;;;;;7.90;6.03;;;;;;;14.66;78.49;101904.34;4978134;28;20037;-82
2023/06/08 07:35:09;;;;;;;14.73;6.97;;;;;;;14.72;79.27;101906.75;4951616;28;20045;-82
2023/06/08 07:37:35;;;;;;;10.95;6.88;;;;;;;14.79;79.20;101905.56;4994674;28;20346;-82
2023/06/08 07:40:11;;;;;;;13.05;6.78;;;;;;;14.84;78.72;101906.22;4974843;28;20375;-91
2023/06/08 07:42:37;;;;;;;14.82;6.78;;;;;;;14.80;78.20;101909.06;4976667;28;20320;-85
2023/06/08 07:45:03;;;;;;;10.32;6.57;;;;;;;14.71;78.13;101908.50;4975749;28;20030;-85
2023/06/08 07:47:28;;;;;;;17.15;7.15;;;;;;;14.67;78.55;101909.56;4969410;28;20085;-86
2023/06/08 07:49:54;;;;;;;9.95;6.10;;;;;;;14.72;79.42;101897.03;4988970;28;20084;-85
2023/06/08 07:52:19;;;;;;;16.02;6.10;;;;;;;14.84;79.29;101893.03;4973848;28;20069;-85
2023/06/08 07:54:44;;;;;;;17.58;6.47;;;;;;;14.94;77.95;101883.81;4991498;28;20042;-85
2023/06/08 07:57:11;;;;;;;11.80;6.30;;;;;;;15.02;76.83;101894.03;4958955;28;20038;-85
2023/06/08 07:59:37;;;;;;;14.35;6.60;;;;;;;15.12;76.91;101882.19;4975207;28;20031;-85
2023/06/08 08:02:02;;;;;;;13.93;7.18;;;;;;;15.21;76.90;101899.41;4997821;28;20425;-85
2023/06/08 08:04:28;;;;;;;9.18;6.57;;;;;;;15.28;76.03;101887.66;4982235;28;20052;-85
2023/06/08 08:06:53;;;;;;;9.02;6.63;;;;;;;15.36;76.02;101879.38;4988463;28;20038;-85
2023/06/08 08:09:19;;;;;;;12.15;6.97;;;;;;;15.46;76.10;101885.09;4963471;28;20337;-85
2023/06/08 08:11:45;;;;;;;15.35;6.43;;;;;;;15.51;75.89;101886.63;4977576;28;20042;-85
2023/06/08 08:14:10;;;;;;;19.45;7.25;;;;;;;15.58;75.50;101887.22;4951198;28;20465;-85
2023/06/08 08:16:38;;;;;;;11.38;7.30;;;;;;;15.69;76.07;101895.50;4986083;28;20308;-85
2023/06/08 08:19:05;;;;;;;9.98;6.88;;;;;;;15.76;75.00;101895.25;4966870;28;20054;-85
2023/06/08 08:21:30;;;;;;;12.15;6.70;;;;;;;15.83;75.15;101894.06;4975135;28;20042;-85
2023/06/08 08:23:56;;;;;;;14.10;6.95;;;;;;;15.84;73.21;101906.31;4992756;28;20211;-85
2023/06/08 08:26:21;;;;;;;9.18;6.53;;;;;;;15.72;71.08;101898.00;4968584;28;20030;-85
2023/06/08 08:28:47;;;;;;;14.20;7.22;;;;;;;15.70;72.24;101893.72;4975660;28;20058;-85
2023/06/08 08:31:13;;;;;;;13.57;7.55;;;;;;;15.73;72.78;101890.94;4982389;28;20069;-85
2023/06/08 08:33:38;;;;;;;16.00;7.85;;;;;;;15.78;72.71;101893.41;4965241;28;20434;-85
2023/06/08 08:36:05;;;;;;;14.52;8.30;;;;;;;15.77;73.63;101889.91;4980842;28;20057;-85
2023/06/08 08:38:30;;;;;;;13.18;7.78;;;;;;;15.75;73.44;101886.47;4996018;28;20183;-85
2023/06/08 08:41:05;;;;;;;13.68;8.13;;;;;;;15.79;73.86;101893.34;4952608;28;20329;-84
2023/06/08 08:43:49;;;;;;;19.70;8.32;;;;;;;15.85;74.46;101890.41;4995498;28;20218;-85
2023/06/08 08:46:16;;;;;;;11.55;8.13;;;;;;;15.95;74.02;101885.53;4980695;28;20030;-85
2023/06/08 08:48:43;;;;;;;12.02;7.78;;;;;;;16.09;73.17;101887.53;4989134;28;20350;-86
2023/06/08 08:51:18;;;;;;;17.30;7.22;;;;;;;16.20;73.44;101885.25;4988051;28;20042;-85
2023/06/08 08:53:48;;;;;;;11.27;7.35;;;;;;;16.35;73.14;101886.28;4985292;28;20046;-85
2023/06/08 08:56:20;;;;;;;19.42;7.57;;;;;;;16.48;72.53;101881.25;4978380;28;20093;-85
2023/06/08 08:58:48;;;;;;;12.20;6.28;;;;;;;16.57;70.45;101880.84;4992751;28;20089;-85
2023/06/08 09:01:14;;;;;;;11.40;6.25;;;;;;;16.64;69.74;101887.50;4986100;28;20133;-85
2023/06/08 09:03:40;;;;;;;12.55;6.18;;;;;;;16.75;69.95;101894.91;4982546;28;20155;-85
2023/06/08 09:06:08;;;;;;;12.65;6.82;;;;;;;16.78;68.92;101889.47;4992954;28;20077;-85
2023/06/08 09:08:33;;;;;;;7.03;5.90;;;;;;;16.88;68.89;101890.78;4968283;28;20054;-85
2023/06/08 09:11:09;;;;;;;7.57;6.47;;;;;;;16.88;69.37;101877.53;4985612;28;20199;-85
2023/06/08 09:13:35;;;;;;;13.13;5.93;;;;;;;16.92;69.58;101888.81;4993702;28;20289;-85
2023/06/08 09:16:20;;;;;;;12.95;6.45;;;;;;;16.95;68.97;101880.72;4988673;28;20035;-85
2023/06/08 09:18:47;;;;;;;12.68;6.20;;;;;;;17.06;69.28;101877.50;4954220;28;20050;-85
2023/06/08 09:21:23;;;;;;;7.55;5.35;;;;;;;17.14;68.46;101877.13;4969293;28;20153;-85
2023/06/08 09:24:07;;;;;;;14.40;5.78;;;;;;;17.18;67.49;101884.81;4964243;28;20046;-85
2023/06/08 09:26:33;;;;;;;15.10;6.00;;;;;;;17.21;67.63;101878.53;4967103;28;20034;-85
2023/06/08 09:29:01;;;;;;;8.68;5.68;;;;;;;17.20;67.83;101872.38;4971237;28;20274;-85
2023/06/08 09:31:30;;;;;;;8.00;5.70;;;;;;;17.23;67.29;101869.56;4984179;28;20030;-85
2023/06/08 09:34:09;;;;;;;7.80;5.90;;;;;;;17.27;67.00;101871.09;4974956;28;20054;-84
2023/06/08 09:36:37;;;;;;;14.23;6.07;;;;;;;17.36;67.42;101874.22;4965431;28;20045;-85
2023/06/08 09:39:08;;;;;;;16.00;5.88;;;;;;;17.40;67.82;101871.31;4985245;28;20042;-85
2023/06/08 09:41:37;;;;;;;10.60;6.30;;;;;;;17.44;67.74;101879.94;4965566;28;20142;-85
2023/06/08 09:44:17;;;;;;;16.73;7.10;;;;;;;17.47;67.97;101861.25;4963915;28;20034;-85
2023/06/08 09:46:45;;;;;;;9.68;6.55;;;;;;;17.52;68.23;101871.59;4985333;28;20146;-85
2023/06/08 09:49:15;;;;;;;10.05;6.78;;;;;;;17.56;69.36;101866.06;4977251;28;20066;-85
2023/06/08 09:52:01;;;;;;;12.35;6.95;;;;;;;17.67;69.39;101856.69;4982820;28;20367;-84
2023/06/08 09:54:26;;;;;;;7.63;5.72;;;;;;;17.78;69.58;101863.09;4956699;28;20340;-84
2023/06/08 09:56:54;;;;;;;14.30;7.55;;;;;;;17.82;69.17;101861.97;4970881;28;20026;-85
2023/06/08 09:59:22;;;;;;;12.35;6.47;;;;;;;17.91;69.66;101865.09;4978424;28;20098;-85
2023/06/08 10:01:54;;;;;;;12.52;6.47;;;;;;;18.01;69.87;101871.63;4992187;28;20042;-84
2023/06/08 10:04:22;;;;;;;14.88;6.97;;;;;;;18.00;67.97;101864.59;4997445;28;20387;-85
2023/06/08 10:06:57;;;;;;;10.68;6.22;;;;;;;18.06;68.57;101866.91;4988991;28;20062;-85
2023/06/08 10:09:27;;;;;;;11.52;6.88;;;;;;;18.12;68.65;101863.91;4978602;28;20030;-85
2023/06/08 10:11:58;;;;;;;8.10;5.85;;;;;;;18.19;69.08;101865.28;4969440;28;20466;-85
2023/06/08 10:14:26;;;;;;;13.23;6.78;;;;;;;18.24;68.25;101872.97;4988466;28;20408;-85
2023/06/08 10:16:56;;;;;;;9.50;6.30;;;;;;;18.29;68.38;101864.75;4970981;28;20065;-86
2023/06/08 10:19:23;;;;;;;13.27;6.00;;;;;;;18.34;68.50;101849.44;4988860;28;20031;-85
2023/06/08 10:21:50;;;;;;;11.60;6.97;;;;;;;18.42;68.17;101853.34;4975162;28;20337;-85
2023/06/08 10:24:19;;;;;;;12.40;6.35;;;;;;;18.45;66.69;101852.31;4989552;28;20031;-85
2023/06/08 10:26:46;;;;;;;9.82;5.80;;;;;;;18.49;67.07;101851.19;4991583;28;20230;-85
2023/06/08 10:29:11;;;;;;;13.98;6.18;;;;;;;18.54;66.96;101853.59;4990487;28;20249;-85
2023/06/08 10:31:42;;;;;;;11.27;5.63;;;;;;;18.61;67.78;101834.56;4988331;28;20065;-85
2023/06/08 10:34:10;;;;;;;13.02;6.13;;;;;;;18.74;66.97;101849.78;4989142;28;20572;-85
2023/06/08 10:36:39;;;;;;;13.40;6.22;;;;;;;18.75;66.63;101857.63;4965262;28;20035;-85
2023/06/08 10:39:14;;;;;;;15.18;6.30;;;;;;;18.84;66.78;101853.59;4983753;28;20046;-85
2023/06/08 10:41:57;;;;;;;10.75;6.40;;;;;;;18.90;66.79;101855.91;4984902;28;20412;-85
2023/06/08 10:44:31;;;;;;;14.45;6.78;;;;;;;18.95;65.61;101863.56;5001570;28;20068;-85
2023/06/08 10:47:12;;;;;;;10.30;6.57;;;;;;;18.88;65.45;101854.28;4970836;28;20026;-85
2023/06/08 10:49:45;;;;;;;9.55;6.18;;;;;;;18.94;65.40;101853.94;5001350;28;20042;-85
2023/06/08 10:52:17;;;;;;;9.20;6.13;;;;;;;19.03;66.09;101841.88;4999350;28;20342;-85
2023/06/08 10:55:06;;;;;;;10.32;6.03;;;;;;;19.04;66.02;101833.81;4999419;28;20569;-85
2023/06/08 10:57:39;;;;;;;9.30;5.95;;;;;;;19.16;65.35;101842.84;4974604;28;20041;-85
2023/06/08 11:00:27;;;;;;;8.95;5.80;;;;;;;19.20;65.00;101839.06;4977974;28;20026;-85
2023/06/08 11:02:57;;;;;;;11.88;5.70;;;;;;;19.30;64.62;101834.03;4999708;28;20264;-85
2023/06/08 11:05:23;;;;;;;9.55;5.93;;;;;;;19.29;64.49;101835.00;4978221;28;20049;-85
2023/06/08 11:07:49;;;;;;;12.55;6.05;;;;;;;19.35;64.56;101831.94;4957966;28;20341;-85
2023/06/08 11:10:15;;;;;;;10.50;6.13;;;;;;;19.37;63.91;101830.91;4997816;28;20101;-85
2023/06/08 11:12:40;;;;;;;7.97;5.70;;;;;;;19.36;63.50;101823.88;4965149;28;20268;-85
2023/06/08 11:15:06;;;;;;;7.50;5.25;;;;;;;19.41;63.78;101814.78;4980803;28;20379;-85
2023/06/08 11:17:53;;;;;;;12.45;6.47;;;;;;;19.47;63.97;101817.06;4955819;28;20057;-85
2023/06/08 11:20:23;;;;;;;11.98;6.05;;;;;;;19.52;63.35;101799.88;4979664;28;20102;-85
2023/06/08 11:22:49;;;;;;;14.50;6.18;;;;;;;19.58;64.03;101813.72;4959466;28;20297;-85